sensor_id;sensor_type;location;lat;lon;timestamp;P1;durP1;ratioP1;P2;durP2;ratioP2
13234;SDS011;6683;48.506;9.050;2023-06-01T00:02:25;3.53;;;2.37;;
13234;SDS011;6683;48.506;9.050;2023-06-01T00:05:28;3.90;;;2.30;;
13234;SDS011;6683;48.506;9.050;2023-06-01T00:08:30;3.93;;;2.40;;
13234;SDS011;6683;48.506;9.050;2023-06-01T00:11:34;2.80;;;2.50;;
13234;SDS011;6683;48.506;9.050;2023-06-01T00:14:38;3.50;;;2.60;;
13234;SDS011;6683;48.506;9.050;2023-06-01T00:17:40;3.43;;;2.50;;
13234;SDS011;6683;48.506;9.050;2023-06-01T00:20:43;4.37;;;2.73;;
13234;SDS011;6683;48.506;9.050;2023-06-01T00:23:46;5.13;;;2.53;;
13234;SDS011;6683;48.506;9.050;2023-06-01T00:26:50;3.83;;;2.60;;
13234;SDS011;6683;48.506;9.050;2023-06-01T00:29:53;3.10;;;2.60;;
13234;SDS011;6683;48.506;9.050;2023-06-01T00:32:55;3.03;;;2.40;;
13234;SDS011;6683;48.506;9.050;2023-06-01T00:35:58;3.43;;;2.40;;
13234;SDS011;6683;48.506;9.050;2023-06-01T00:39:01;2.37;;;2.17;;
13234;SDS011;6683;48.506;9.050;2023-06-01T00:42:06;3.07;;;2.30;;
13234;SDS011;6683;48.506;9.050;2023-06-01T00:45:09;3.30;;;2.30;;
13234;SDS011;6683;48.506;9.050;2023-06-01T00:48:11;3.53;;;2.33;;
13234;SDS011;6683;48.506;9.050;2023-06-01T00:51:16;4.07;;;2.47;;
13234;SDS011;6683;48.506;9.050;2023-06-01T00:54:18;2.93;;;2.30;;
13234;SDS011;6683;48.506;9.050;2023-06-01T00:57:24;4.50;;;2.57;;
13234;SDS011;6683;48.506;9.050;2023-06-01T01:00:27;3.10;;;2.70;;
13234;SDS011;6683;48.506;9.050;2023-06-01T01:03:31;3.20;;;2.50;;
13234;SDS011;6683;48.506;9.050;2023-06-01T01:06:39;3.90;;;2.40;;
13234;SDS011;6683;48.506;9.050;2023-06-01T01:09:53;2.50;;;2.13;;
13234;SDS011;6683;48.506;9.050;2023-06-01T01:13:06;2.67;;;2.47;;
13234;SDS011;6683;48.506;9.050;2023-06-01T01:16:17;3.70;;;2.23;;
13234;SDS011;6683;48.506;9.050;2023-06-01T01:19:29;4.40;;;2.50;;
13234;SDS011;6683;48.506;9.050;2023-06-01T01:23:02;3.23;;;2.60;;
13234;SDS011;6683;48.506;9.050;2023-06-01T01:26:26;3.77;;;2.37;;
13234;SDS011;6683;48.506;9.050;2023-06-01T01:29:46;3.67;;;2.60;;
13234;SDS011;6683;48.506;9.050;2023-06-01T01:32:50;2.93;;;2.40;;
13234;SDS011;6683;48.506;9.050;2023-06-01T01:35:55;2.73;;;2.23;;
13234;SDS011;6683;48.506;9.050;2023-06-01T01:38:59;2.90;;;2.10;;
13234;SDS011;6683;48.506;9.050;2023-06-01T01:42:02;3.67;;;2.30;;
13234;SDS011;6683;48.506;9.050;2023-06-01T01:45:07;3.50;;;2.23;;
13234;SDS011;6683;48.506;9.050;2023-06-01T01:48:13;3.57;;;2.30;;
13234;SDS011;6683;48.506;9.050;2023-06-01T01:51:23;4.23;;;2.60;;
13234;SDS011;6683;48.506;9.050;2023-06-01T01:54:37;3.30;;;2.40;;
13234;SDS011;6683;48.506;9.050;2023-06-01T01:57:43;3.60;;;2.57;;
13234;SDS011;6683;48.506;9.050;2023-06-01T02:00:48;3.13;;;2.43;;
13234;SDS011;6683;48.506;9.050;2023-06-01T02:03:57;3.87;;;3.00;;
13234;SDS011;6683;48.506;9.050;2023-06-01T02:07:01;3.63;;;2.67;;
13234;SDS011;6683;48.506;9.050;2023-06-01T02:10:04;3.00;;;2.33;;
13234;SDS011;6683;48.506;9.050;2023-06-01T02:13:08;3.07;;;2.67;;
13234;SDS011;6683;48.506;9.050;2023-06-01T02:16:12;2.70;;;2.50;;
13234;SDS011;6683;48.506;9.050;2023-06-01T02:19:16;3.23;;;2.60;;
13234;SDS011;6683;48.506;9.050;2023-06-01T02:22:18;2.93;;;2.67;;
13234;SDS011;6683;48.506;9.050;2023-06-01T02:25:21;2.97;;;2.63;;
13234;SDS011;6683;48.506;9.050;2023-06-01T02:28:23;4.03;;;2.90;;
13234;SDS011;6683;48.506;9.050;2023-06-01T02:31:28;3.70;;;3.00;;
13234;SDS011;6683;48.506;9.050;2023-06-01T02:34:30;4.47;;;2.80;;
13234;SDS011;6683;48.506;9.050;2023-06-01T02:37:33;3.90;;;2.77;;
13234;SDS011;6683;48.506;9.050;2023-06-01T02:40:35;3.83;;;2.57;;
13234;SDS011;6683;48.506;9.050;2023-06-01T02:43:38;3.10;;;2.67;;
13234;SDS011;6683;48.506;9.050;2023-06-01T02:46:42;3.50;;;2.70;;
13234;SDS011;6683;48.506;9.050;2023-06-01T02:49:44;3.00;;;2.70;;
13234;SDS011;6683;48.506;9.050;2023-06-01T02:52:47;3.53;;;2.37;;
13234;SDS011;6683;48.506;9.050;2023-06-01T02:55:50;3.53;;;2.77;;
13234;SDS011;6683;48.506;9.050;2023-06-01T02:58:53;3.23;;;2.43;;
13234;SDS011;6683;48.506;9.050;2023-06-01T03:01:57;3.07;;;2.53;;
13234;SDS011;6683;48.506;9.050;2023-06-01T03:04:59;4.13;;;3.17;;
13234;SDS011;6683;48.506;9.050;2023-06-01T03:08:06;3.40;;;2.90;;
13234;SDS011;6683;48.506;9.050;2023-06-01T03:11:08;5.57;;;2.97;;
13234;SDS011;6683;48.506;9.050;2023-06-01T03:14:11;2.73;;;2.47;;
13234;SDS011;6683;48.506;9.050;2023-06-01T03:17:15;4.03;;;2.67;;
13234;SDS011;6683;48.506;9.050;2023-06-01T03:20:18;3.60;;;2.93;;
13234;SDS011;6683;48.506;9.050;2023-06-01T03:23:20;3.03;;;2.73;;
13234;SDS011;6683;48.506;9.050;2023-06-01T03:26:23;3.80;;;2.40;;
13234;SDS011;6683;48.506;9.050;2023-06-01T03:29:27;4.73;;;2.60;;
13234;SDS011;6683;48.506;9.050;2023-06-01T03:32:31;3.43;;;2.63;;
13234;SDS011;6683;48.506;9.050;2023-06-01T03:35:33;2.93;;;2.40;;
13234;SDS011;6683;48.506;9.050;2023-06-01T03:38:36;3.63;;;2.60;;
13234;SDS011;6683;48.506;9.050;2023-06-01T03:41:38;4.20;;;2.63;;
13234;SDS011;6683;48.506;9.050;2023-06-01T03:44:40;3.10;;;2.80;;
13234;SDS011;6683;48.506;9.050;2023-06-01T03:47:44;3.83;;;2.83;;
13234;SDS011;6683;48.506;9.050;2023-06-01T03:50:46;4.27;;;2.43;;
13234;SDS011;6683;48.506;9.050;2023-06-01T03:53:49;2.60;;;2.40;;
13234;SDS011;6683;48.506;9.050;2023-06-01T03:56:52;3.27;;;2.33;;
13234;SDS011;6683;48.506;9.050;2023-06-01T03:59:55;3.30;;;2.60;;
13234;SDS011;6683;48.506;9.050;2023-06-01T04:02:59;3.87;;;2.30;;
13234;SDS011;6683;48.506;9.050;2023-06-01T04:06:06;2.40;;;2.20;;
13234;SDS011;6683;48.506;9.050;2023-06-01T04:09:12;2.80;;;2.50;;
13234;SDS011;6683;48.506;9.050;2023-06-01T04:12:15;3.40;;;2.40;;
13234;SDS011;6683;48.506;9.050;2023-06-01T04:15:18;3.00;;;2.20;;
13234;SDS011;6683;48.506;9.050;2023-06-01T04:18:23;4.60;;;3.00;;
13234;SDS011;6683;48.506;9.050;2023-06-01T04:21:25;4.00;;;2.63;;
13234;SDS011;6683;48.506;9.050;2023-06-01T04:24:28;3.87;;;2.50;;
13234;SDS011;6683;48.506;9.050;2023-06-01T04:27:31;3.30;;;2.30;;
13234;SDS011;6683;48.506;9.050;2023-06-01T04:30:36;3.00;;;2.67;;
13234;SDS011;6683;48.506;9.050;2023-06-01T04:33:40;2.73;;;2.47;;
13234;SDS011;6683;48.506;9.050;2023-06-01T04:36:44;3.00;;;2.70;;
13234;SDS011;6683;48.506;9.050;2023-06-01T04:39:51;5.40;;;2.43;;
13234;SDS011;6683;48.506;9.050;2023-06-01T04:42:53;2.87;;;2.57;;
13234;SDS011;6683;48.506;9.050;2023-06-01T04:45:58;2.90;;;2.60;;
13234;SDS011;6683;48.506;9.050;2023-06-01T04:49:05;3.07;;;2.60;;
13234;SDS011;6683;48.506;9.050;2023-06-01T04:52:07;3.40;;;2.63;;
13234;SDS011;6683;48.506;9.050;2023-06-01T04:55:10;2.70;;;2.50;;
13234;SDS011;6683;48.506;9.050;2023-06-01T04:58:14;3.67;;;2.73;;
13234;SDS011;6683;48.506;9.050;2023-06-01T05:01:17;2.90;;;2.37;;
13234;SDS011;6683;48.506;9.050;2023-06-01T05:04:21;4.10;;;2.80;;
13234;SDS011;6683;48.506;9.050;2023-06-01T05:07:23;3.50;;;2.73;;
13234;SDS011;6683;48.506;9.050;2023-06-01T05:10:26;5.30;;;2.87;;
13234;SDS011;6683;48.506;9.050;2023-06-01T05:13:28;3.10;;;2.77;;
13234;SDS011;6683;48.506;9.050;2023-06-01T05:16:31;4.40;;;2.67;;
13234;SDS011;6683;48.506;9.050;2023-06-01T05:19:35;4.27;;;2.93;;
13234;SDS011;6683;48.506;9.050;2023-06-01T05:22:38;6.07;;;3.07;;
13234;SDS011;6683;48.506;9.050;2023-06-01T05:25:41;4.20;;;3.40;;
13234;SDS011;6683;48.506;9.050;2023-06-01T05:28:43;7.00;;;3.40;;
13234;SDS011;6683;48.506;9.050;2023-06-01T05:31:46;5.23;;;3.60;;
13234;SDS011;6683;48.506;9.050;2023-06-01T05:34:50;3.40;;;3.10;;
13234;SDS011;6683;48.506;9.050;2023-06-01T05:37:52;4.07;;;3.17;;
13234;SDS011;6683;48.506;9.050;2023-06-01T05:40:55;4.70;;;3.10;;
13234;SDS011;6683;48.506;9.050;2023-06-01T05:43:58;4.80;;;3.27;;
13234;SDS011;6683;48.506;9.050;2023-06-01T05:47:00;7.47;;;3.73;;
13234;SDS011;6683;48.506;9.050;2023-06-01T05:50:05;6.60;;;3.20;;
13234;SDS011;6683;48.506;9.050;2023-06-01T05:53:08;6.33;;;3.67;;
13234;SDS011;6683;48.506;9.050;2023-06-01T05:56:11;5.07;;;3.00;;
13234;SDS011;6683;48.506;9.050;2023-06-01T05:59:13;4.07;;;3.23;;
13234;SDS011;6683;48.506;9.050;2023-06-01T06:02:16;6.67;;;3.47;;
13234;SDS011;6683;48.506;9.050;2023-06-01T06:05:20;4.63;;;3.50;;
13234;SDS011;6683;48.506;9.050;2023-06-01T06:08:23;5.60;;;3.10;;
13234;SDS011;6683;48.506;9.050;2023-06-01T06:11:26;5.97;;;3.40;;
13234;SDS011;6683;48.506;9.050;2023-06-01T06:14:28;3.63;;;3.10;;
13234;SDS011;6683;48.506;9.050;2023-06-01T06:17:30;6.07;;;3.07;;
13234;SDS011;6683;48.506;9.050;2023-06-01T06:20:34;4.60;;;3.33;;
13234;SDS011;6683;48.506;9.050;2023-06-01T06:23:37;5.03;;;3.23;;
13234;SDS011;6683;48.506;9.050;2023-06-01T06:26:40;4.67;;;2.93;;
13234;SDS011;6683;48.506;9.050;2023-06-01T06:29:42;3.77;;;3.00;;
13234;SDS011;6683;48.506;9.050;2023-06-01T06:32:45;7.20;;;2.93;;
13234;SDS011;6683;48.506;9.050;2023-06-01T06:35:49;5.37;;;2.97;;
13234;SDS011;6683;48.506;9.050;2023-06-01T06:38:51;4.63;;;3.20;;
13234;SDS011;6683;48.506;9.050;2023-06-01T06:41:54;6.23;;;3.57;;
13234;SDS011;6683;48.506;9.050;2023-06-01T06:44:57;4.40;;;2.70;;
13234;SDS011;6683;48.506;9.050;2023-06-01T06:47:59;4.77;;;2.87;;
13234;SDS011;6683;48.506;9.050;2023-06-01T06:51:03;7.00;;;3.00;;
13234;SDS011;6683;48.506;9.050;2023-06-01T06:54:06;3.93;;;3.27;;
13234;SDS011;6683;48.506;9.050;2023-06-01T06:57:08;6.57;;;3.03;;
13234;SDS011;6683;48.506;9.050;2023-06-01T07:00:12;4.77;;;2.93;;
13234;SDS011;6683;48.506;9.050;2023-06-01T07:03:16;5.30;;;2.77;;
13234;SDS011;6683;48.506;9.050;2023-06-01T07:06:20;4.10;;;2.97;;
13234;SDS011;6683;48.506;9.050;2023-06-01T07:09:23;4.17;;;2.63;;
13234;SDS011;6683;48.506;9.050;2023-06-01T07:12:25;4.57;;;2.83;;
13234;SDS011;6683;48.506;9.050;2023-06-01T07:15:28;4.40;;;2.50;;
13234;SDS011;6683;48.506;9.050;2023-06-01T07:18:30;5.20;;;2.90;;
13234;SDS011;6683;48.506;9.050;2023-06-01T07:21:34;4.20;;;2.70;;
13234;SDS011;6683;48.506;9.050;2023-06-01T07:24:37;3.97;;;3.00;;
13234;SDS011;6683;48.506;9.050;2023-06-01T07:27:40;3.50;;;2.80;;
13234;SDS011;6683;48.506;9.050;2023-06-01T07:30:43;5.87;;;3.10;;
13234;SDS011;6683;48.506;9.050;2023-06-01T07:33:46;3.93;;;2.93;;
13234;SDS011;6683;48.506;9.050;2023-06-01T07:36:50;4.03;;;2.60;;
13234;SDS011;6683;48.506;9.050;2023-06-01T07:39:53;5.30;;;2.80;;
13234;SDS011;6683;48.506;9.050;2023-06-01T07:42:56;8.13;;;2.87;;
13234;SDS011;6683;48.506;9.050;2023-06-01T07:45:58;3.77;;;2.70;;
13234;SDS011;6683;48.506;9.050;2023-06-01T07:49:01;4.50;;;2.70;;
13234;SDS011;6683;48.506;9.050;2023-06-01T07:52:06;5.37;;;2.63;;
13234;SDS011;6683;48.506;9.050;2023-06-01T07:55:08;3.00;;;2.57;;
13234;SDS011;6683;48.506;9.050;2023-06-01T07:58:11;3.87;;;2.97;;
13234;SDS011;6683;48.506;9.050;2023-06-01T08:01:13;3.07;;;2.73;;
13234;SDS011;6683;48.506;9.050;2023-06-01T08:04:15;4.77;;;2.47;;
13234;SDS011;6683;48.506;9.050;2023-06-01T08:07:22;4.10;;;2.80;;
13234;SDS011;6683;48.506;9.050;2023-06-01T08:10:28;3.77;;;2.80;;
13234;SDS011;6683;48.506;9.050;2023-06-01T08:13:30;3.00;;;2.53;;
13234;SDS011;6683;48.506;9.050;2023-06-01T08:16:36;3.67;;;2.37;;
13234;SDS011;6683;48.506;9.050;2023-06-01T08:19:39;6.03;;;2.75;;
13234;SDS011;6683;48.506;9.050;2023-06-01T08:22:44;4.23;;;2.90;;
13234;SDS011;6683;48.506;9.050;2023-06-01T08:25:47;4.95;;;3.10;;
13234;SDS011;6683;48.506;9.050;2023-06-01T08:28:49;5.75;;;2.47;;
13234;SDS011;6683;48.506;9.050;2023-06-01T08:31:53;3.20;;;2.60;;
13234;SDS011;6683;48.506;9.050;2023-06-01T08:34:59;4.10;;;2.72;;
13234;SDS011;6683;48.506;9.050;2023-06-01T08:38:03;3.30;;;2.90;;
13234;SDS011;6683;48.506;9.050;2023-06-01T08:41:09;3.92;;;2.75;;
13234;SDS011;6683;48.506;9.050;2023-06-01T08:44:18;3.75;;;2.97;;
13234;SDS011;6683;48.506;9.050;2023-06-01T08:47:28;4.05;;;2.95;;
13234;SDS011;6683;48.506;9.050;2023-06-01T08:50:30;5.15;;;2.78;;
13234;SDS011;6683;48.506;9.050;2023-06-01T08:53:34;3.65;;;2.80;;
13234;SDS011;6683;48.506;9.050;2023-06-01T08:56:38;4.57;;;2.90;;
13234;SDS011;6683;48.506;9.050;2023-06-01T08:59:43;4.28;;;3.00;;
13234;SDS011;6683;48.506;9.050;2023-06-01T09:02:47;5.53;;;3.40;;
13234;SDS011;6683;48.506;9.050;2023-06-01T09:05:50;3.47;;;2.88;;
13234;SDS011;6683;48.506;9.050;2023-06-01T09:08:54;5.82;;;3.08;;
13234;SDS011;6683;48.506;9.050;2023-06-01T09:12:15;3.97;;;2.40;;
13234;SDS011;6683;48.506;9.050;2023-06-01T09:15:23;6.18;;;3.03;;
13234;SDS011;6683;48.506;9.050;2023-06-01T09:18:26;4.10;;;2.63;;
13234;SDS011;6683;48.506;9.050;2023-06-01T09:21:29;4.18;;;3.05;;
13234;SDS011;6683;48.506;9.050;2023-06-01T09:24:33;3.20;;;2.55;;
13234;SDS011;6683;48.506;9.050;2023-06-01T09:27:42;3.40;;;2.85;;
13234;SDS011;6683;48.506;9.050;2023-06-01T09:30:46;3.35;;;2.80;;
13234;SDS011;6683;48.506;9.050;2023-06-01T09:33:52;4.85;;;2.92;;
13234;SDS011;6683;48.506;9.050;2023-06-01T09:37:05;3.85;;;3.08;;
13234;SDS011;6683;48.506;9.050;2023-06-01T09:40:18;2.95;;;2.65;;
13234;SDS011;6683;48.506;9.050;2023-06-01T09:43:21;4.00;;;3.20;;
13234;SDS011;6683;48.506;9.050;2023-06-01T09:46:25;3.33;;;3.03;;
13234;SDS011;6683;48.506;9.050;2023-06-01T09:49:28;3.13;;;2.80;;
13234;SDS011;6683;48.506;9.050;2023-06-01T09:52:32;5.22;;;2.92;;
13234;SDS011;6683;48.506;9.050;2023-06-01T09:55:36;5.00;;;2.88;;
13234;SDS011;6683;48.506;9.050;2023-06-01T09:59:01;7.72;;;3.20;;
13234;SDS011;6683;48.506;9.050;2023-06-01T10:02:04;3.97;;;2.85;;
13234;SDS011;6683;48.506;9.050;2023-06-01T10:05:09;4.88;;;3.25;;
13234;SDS011;6683;48.506;9.050;2023-06-01T10:08:12;3.38;;;2.80;;
13234;SDS011;6683;48.506;9.050;2023-06-01T10:11:18;3.20;;;2.90;;
13234;SDS011;6683;48.506;9.050;2023-06-01T10:14:22;4.88;;;3.30;;
13234;SDS011;6683;48.506;9.050;2023-06-01T10:17:26;3.15;;;2.85;;
13234;SDS011;6683;48.506;9.050;2023-06-01T10:20:31;4.32;;;3.30;;
13234;SDS011;6683;48.506;9.050;2023-06-01T10:23:35;3.60;;;3.13;;
13234;SDS011;6683;48.506;9.050;2023-06-01T10:26:41;3.30;;;3.00;;
13234;SDS011;6683;48.506;9.050;2023-06-01T10:29:50;3.80;;;3.50;;
13234;SDS011;6683;48.506;9.050;2023-06-01T10:32:54;3.75;;;3.15;;
13234;SDS011;6683;48.506;9.050;2023-06-01T10:35:56;3.80;;;3.38;;
13234;SDS011;6683;48.506;9.050;2023-06-01T10:42:37;3.72;;;3.22;;
13234;SDS011;6683;48.506;9.050;2023-06-01T10:45:40;3.13;;;2.90;;
13234;SDS011;6683;48.506;9.050;2023-06-01T10:48:54;3.13;;;2.88;;
13234;SDS011;6683;48.506;9.050;2023-06-01T10:55:27;3.38;;;3.08;;
13234;SDS011;6683;48.506;9.050;2023-06-01T10:58:31;3.97;;;3.33;;
13234;SDS011;6683;48.506;9.050;2023-06-01T11:01:33;3.78;;;3.00;;
13234;SDS011;6683;48.506;9.050;2023-06-01T11:04:36;3.47;;;3.17;;
13234;SDS011;6683;48.506;9.050;2023-06-01T11:07:39;3.30;;;2.95;;
13234;SDS011;6683;48.506;9.050;2023-06-01T11:10:57;4.57;;;3.17;;
13234;SDS011;6683;48.506;9.050;2023-06-01T11:14:10;4.03;;;3.28;;
13234;SDS011;6683;48.506;9.050;2023-06-01T11:17:27;3.70;;;3.13;;
13234;SDS011;6683;48.506;9.050;2023-06-01T11:20:36;3.40;;;3.10;;
13234;SDS011;6683;48.506;9.050;2023-06-01T11:23:41;3.58;;;3.08;;
13234;SDS011;6683;48.506;9.050;2023-06-01T11:26:44;4.05;;;3.10;;
13234;SDS011;6683;48.506;9.050;2023-06-01T11:29:49;3.75;;;3.38;;
13234;SDS011;6683;48.506;9.050;2023-06-01T11:32:52;3.60;;;3.30;;
13234;SDS011;6683;48.506;9.050;2023-06-01T11:35:58;3.50;;;3.20;;
13234;SDS011;6683;48.506;9.050;2023-06-01T11:39:02;4.55;;;3.50;;
13234;SDS011;6683;48.506;9.050;2023-06-01T11:42:08;3.70;;;3.20;;
13234;SDS011;6683;48.506;9.050;2023-06-01T11:45:15;3.40;;;3.10;;
13234;SDS011;6683;48.506;9.050;2023-06-01T11:48:19;4.55;;;3.30;;
13234;SDS011;6683;48.506;9.050;2023-06-01T11:51:21;3.40;;;3.00;;
13234;SDS011;6683;48.506;9.050;2023-06-01T11:54:24;4.18;;;3.38;;
13234;SDS011;6683;48.506;9.050;2023-06-01T11:57:28;3.33;;;3.03;;
13234;SDS011;6683;48.506;9.050;2023-06-01T12:00:32;6.15;;;3.08;;
13234;SDS011;6683;48.506;9.050;2023-06-01T12:03:44;3.75;;;3.05;;
13234;SDS011;6683;48.506;9.050;2023-06-01T12:06:47;3.40;;;3.08;;
13234;SDS011;6683;48.506;9.050;2023-06-01T12:09:51;3.47;;;3.17;;
13234;SDS011;6683;48.506;9.050;2023-06-01T12:12:55;3.10;;;2.90;;
13234;SDS011;6683;48.506;9.050;2023-06-01T12:15:59;5.00;;;3.13;;
13234;SDS011;6683;48.506;9.050;2023-06-01T12:19:08;4.53;;;2.78;;
13234;SDS011;6683;48.506;9.050;2023-06-01T12:22:11;4.57;;;3.15;;
13234;SDS011;6683;48.506;9.050;2023-06-01T12:25:13;3.50;;;3.20;;
13234;SDS011;6683;48.506;9.050;2023-06-01T12:28:17;4.15;;;3.30;;
13234;SDS011;6683;48.506;9.050;2023-06-01T12:31:21;3.03;;;2.78;;
13234;SDS011;6683;48.506;9.050;2023-06-01T12:34:24;3.40;;;3.10;;
13234;SDS011;6683;48.506;9.050;2023-06-01T12:37:26;3.95;;;3.03;;
13234;SDS011;6683;48.506;9.050;2023-06-01T12:40:29;3.03;;;2.78;;
13234;SDS011;6683;48.506;9.050;2023-06-01T12:43:32;3.42;;;2.88;;
13234;SDS011;6683;48.506;9.050;2023-06-01T12:46:37;3.72;;;3.10;;
13234;SDS011;6683;48.506;9.050;2023-06-01T12:49:40;3.22;;;2.92;;
13234;SDS011;6683;48.506;9.050;2023-06-01T12:53:02;4.25;;;3.22;;
13234;SDS011;6683;48.506;9.050;2023-06-01T12:56:05;3.72;;;3.10;;
13234;SDS011;6683;48.506;9.050;2023-06-01T12:59:08;3.50;;;3.20;;
13234;SDS011;6683;48.506;9.050;2023-06-01T13:02:12;3.53;;;2.90;;
13234;SDS011;6683;48.506;9.050;2023-06-01T13:05:14;3.28;;;2.90;;
13234;SDS011;6683;48.506;9.050;2023-06-01T13:08:17;5.03;;;3.40;;
13234;SDS011;6683;48.506;9.050;2023-06-01T13:11:20;2.88;;;2.67;;
13234;SDS011;6683;48.506;9.050;2023-06-01T13:14:23;3.38;;;3.08;;
13234;SDS011;6683;48.506;9.050;2023-06-01T13:17:27;3.50;;;2.97;;
13234;SDS011;6683;48.506;9.050;2023-06-01T13:20:30;3.28;;;3.00;;
13234;SDS011;6683;48.506;9.050;2023-06-01T13:23:33;4.60;;;3.15;;
13234;SDS011;6683;48.506;9.050;2023-06-01T13:26:35;2.88;;;2.67;;
13234;SDS011;6683;48.506;9.050;2023-06-01T13:29:38;5.57;;;3.10;;
13234;SDS011;6683;48.506;9.050;2023-06-01T13:32:42;3.22;;;2.92;;
13234;SDS011;6683;48.506;9.050;2023-06-01T13:35:45;2.88;;;2.67;;
13234;SDS011;6683;48.506;9.050;2023-06-01T13:38:49;3.55;;;3.13;;
13234;SDS011;6683;48.506;9.050;2023-06-01T13:41:51;3.47;;;3.17;;
13234;SDS011;6683;48.506;9.050;2023-06-01T13:44:53;4.05;;;3.30;;
13234;SDS011;6683;48.506;9.050;2023-06-01T13:47:57;5.10;;;3.50;;
13234;SDS011;6683;48.506;9.050;2023-06-01T13:51:00;3.50;;;3.20;;
13234;SDS011;6683;48.506;9.050;2023-06-01T13:54:03;2.95;;;2.72;;
13234;SDS011;6683;48.506;9.050;2023-06-01T13:57:05;3.17;;;2.90;;
13234;SDS011;6683;48.506;9.050;2023-06-01T14:00:08;3.20;;;2.90;;
13234;SDS011;6683;48.506;9.050;2023-06-01T14:03:14;3.38;;;3.08;;
13234;SDS011;6683;48.506;9.050;2023-06-01T14:06:16;5.65;;;3.08;;
13234;SDS011;6683;48.506;9.050;2023-06-01T14:09:18;3.80;;;2.88;;
13234;SDS011;6683;48.506;9.050;2023-06-01T14:12:21;3.85;;;3.15;;
13234;SDS011;6683;48.506;9.050;2023-06-01T14:15:23;3.50;;;3.20;;
13234;SDS011;6683;48.506;9.050;2023-06-01T14:18:27;3.72;;;3.10;;
13234;SDS011;6683;48.506;9.050;2023-06-01T14:21:29;3.50;;;2.67;;
13234;SDS011;6683;48.506;9.050;2023-06-01T14:24:32;2.95;;;2.67;;
13234;SDS011;6683;48.506;9.050;2023-06-01T14:27:34;3.20;;;2.90;;
13234;SDS011;6683;48.506;9.050;2023-06-01T14:30:37;3.70;;;2.90;;
13234;SDS011;6683;48.506;9.050;2023-06-01T14:33:41;3.95;;;3.15;;
13234;SDS011;6683;48.506;9.050;2023-06-01T14:36:45;3.50;;;3.10;;
13234;SDS011;6683;48.506;9.050;2023-06-01T14:39:47;3.10;;;2.80;;
13234;SDS011;6683;48.506;9.050;2023-06-01T14:42:50;3.55;;;2.80;;
13234;SDS011;6683;48.506;9.050;2023-06-01T14:45:52;4.88;;;3.25;;
13234;SDS011;6683;48.506;9.050;2023-06-01T14:48:56;3.70;;;2.70;;
13234;SDS011;6683;48.506;9.050;2023-06-01T14:51:59;3.42;;;2.95;;
13234;SDS011;6683;48.506;9.050;2023-06-01T14:55:02;3.58;;;2.88;;
13234;SDS011;6683;48.506;9.050;2023-06-01T14:58:05;3.58;;;3.03;;
13234;SDS011;6683;48.506;9.050;2023-06-01T15:01:08;3.53;;;3.00;;
13234;SDS011;6683;48.506;9.050;2023-06-01T15:04:12;3.42;;;3.03;;
13234;SDS011;6683;48.506;9.050;2023-06-01T15:07:14;3.83;;;2.70;;
13234;SDS011;6683;48.506;9.050;2023-06-01T15:10:17;3.15;;;2.85;;
13234;SDS011;6683;48.506;9.050;2023-06-01T15:13:19;3.28;;;2.80;;
13234;SDS011;6683;48.506;9.050;2023-06-01T15:16:22;3.03;;;2.72;;
13234;SDS011;6683;48.506;9.050;2023-06-01T15:19:26;3.97;;;2.97;;
13234;SDS011;6683;48.506;9.050;2023-06-01T15:22:29;4.95;;;3.17;;
13234;SDS011;6683;48.506;9.050;2023-06-01T15:25:31;3.83;;;3.30;;
13234;SDS011;6683;48.506;9.050;2023-06-01T15:28:34;3.30;;;3.00;;
13234;SDS011;6683;48.506;9.050;2023-06-01T15:31:36;3.25;;;2.95;;
13234;SDS011;6683;48.506;9.050;2023-06-01T15:34:41;3.20;;;2.55;;
13234;SDS011;6683;48.506;9.050;2023-06-01T15:37:43;2.80;;;2.53;;
13234;SDS011;6683;48.506;9.050;2023-06-01T15:40:46;5.82;;;2.90;;
13234;SDS011;6683;48.506;9.050;2023-06-01T15:43:48;3.72;;;2.83;;
13234;SDS011;6683;48.506;9.050;2023-06-01T15:46:50;3.03;;;2.72;;
13234;SDS011;6683;48.506;9.050;2023-06-01T15:49:54;3.90;;;2.80;;
13234;SDS011;6683;48.506;9.050;2023-06-01T15:52:57;6.75;;;3.00;;
13234;SDS011;6683;48.506;9.050;2023-06-01T15:55:59;3.15;;;2.75;;
13234;SDS011;6683;48.506;9.050;2023-06-01T15:59:01;2.70;;;2.35;;
13234;SDS011;6683;48.506;9.050;2023-06-01T16:02:04;2.72;;;2.47;;
13234;SDS011;6683;48.506;9.050;2023-06-01T16:05:09;2.90;;;2.55;;
13234;SDS011;6683;48.506;9.050;2023-06-01T16:08:11;6.80;;;3.00;;
13234;SDS011;6683;48.506;9.050;2023-06-01T16:11:14;4.28;;;3.00;;
13234;SDS011;6683;48.506;9.050;2023-06-01T16:14:17;3.70;;;2.90;;
13234;SDS011;6683;48.506;9.050;2023-06-01T16:17:19;4.18;;;2.50;;
13234;SDS011;6683;48.506;9.050;2023-06-01T16:20:23;4.03;;;3.22;;
13234;SDS011;6683;48.506;9.050;2023-06-01T16:23:25;3.42;;;2.80;;
13234;SDS011;6683;48.506;9.050;2023-06-01T16:26:28;3.03;;;2.65;;
13234;SDS011;6683;48.506;9.050;2023-06-01T16:29:30;3.92;;;2.95;;
13234;SDS011;6683;48.506;9.050;2023-06-01T16:32:33;2.65;;;2.45;;
13234;SDS011;6683;48.506;9.050;2023-06-01T16:35:36;2.88;;;2.67;;
13234;SDS011;6683;48.506;9.050;2023-06-01T16:38:39;3.85;;;2.47;;
13234;SDS011;6683;48.506;9.050;2023-06-01T16:41:41;2.97;;;2.38;;
13234;SDS011;6683;48.506;9.050;2023-06-01T16:44:44;2.30;;;2.10;;
13234;SDS011;6683;48.506;9.050;2023-06-01T16:47:46;2.60;;;2.30;;
13234;SDS011;6683;48.506;9.050;2023-06-01T16:50:50;2.75;;;2.35;;
13234;SDS011;6683;48.506;9.050;2023-06-01T16:53:53;3.55;;;3.13;;
13234;SDS011;6683;48.506;9.050;2023-06-01T16:56:55;2.88;;;2.17;;
13234;SDS011;6683;48.506;9.050;2023-06-01T16:59:57;3.53;;;2.13;;
13234;SDS011;6683;48.506;9.050;2023-06-01T17:03:00;2.70;;;1.88;;
13234;SDS011;6683;48.506;9.050;2023-06-01T17:06:04;2.28;;;2.08;;
13234;SDS011;6683;48.506;9.050;2023-06-01T17:09:08;2.30;;;2.10;;
13234;SDS011;6683;48.506;9.050;2023-06-01T17:12:10;2.30;;;1.75;;
13234;SDS011;6683;48.506;9.050;2023-06-01T17:15:17;1.92;;;1.80;;
13234;SDS011;6683;48.506;9.050;2023-06-01T17:18:19;1.98;;;1.88;;
13234;SDS011;6683;48.506;9.050;2023-06-01T17:21:23;4.78;;;2.40;;
13234;SDS011;6683;48.506;9.050;2023-06-01T17:24:26;2.58;;;1.90;;
13234;SDS011;6683;48.506;9.050;2023-06-01T17:27:28;2.72;;;2.03;;
13234;SDS011;6683;48.506;9.050;2023-06-01T17:30:30;2.40;;;1.80;;
13234;SDS011;6683;48.506;9.050;2023-06-01T17:33:33;3.20;;;1.67;;
13234;SDS011;6683;48.506;9.050;2023-06-01T17:36:37;1.92;;;1.83;;
13234;SDS011;6683;48.506;9.050;2023-06-01T17:39:39;1.77;;;1.67;;
13234;SDS011;6683;48.506;9.050;2023-06-01T17:42:42;1.90;;;1.65;;
13234;SDS011;6683;48.506;9.050;2023-06-01T17:45:44;2.65;;;1.63;;
13234;SDS011;6683;48.506;9.050;2023-06-01T17:48:47;2.28;;;1.58;;
13234;SDS011;6683;48.506;9.050;2023-06-01T17:51:51;1.60;;;1.50;;
13234;SDS011;6683;48.506;9.050;2023-06-01T17:54:54;2.35;;;1.63;;
13234;SDS011;6683;48.506;9.050;2023-06-01T17:57:57;1.60;;;1.42;;
13234;SDS011;6683;48.506;9.050;2023-06-01T18:00:59;2.17;;;1.50;;
13234;SDS011;6683;48.506;9.050;2023-06-01T18:04:02;1.85;;;1.40;;
13234;SDS011;6683;48.506;9.050;2023-06-01T18:07:06;2.25;;;1.45;;
13234;SDS011;6683;48.506;9.050;2023-06-01T18:10:08;2.92;;;1.50;;
13234;SDS011;6683;48.506;9.050;2023-06-01T18:13:11;1.55;;;1.45;;
13234;SDS011;6683;48.506;9.050;2023-06-01T18:16:14;4.10;;;1.65;;
13234;SDS011;6683;48.506;9.050;2023-06-01T18:19:16;1.38;;;1.27;;
13234;SDS011;6683;48.506;9.050;2023-06-01T18:22:21;1.88;;;1.50;;
13234;SDS011;6683;48.506;9.050;2023-06-01T18:25:23;1.60;;;1.50;;
13234;SDS011;6683;48.506;9.050;2023-06-01T18:28:26;1.70;;;1.60;;
13234;SDS011;6683;48.506;9.050;2023-06-01T18:31:28;1.83;;;1.38;;
13234;SDS011;6683;48.506;9.050;2023-06-01T18:34:31;2.45;;;1.40;;
13234;SDS011;6683;48.506;9.050;2023-06-01T18:37:35;2.58;;;1.48;;
13234;SDS011;6683;48.506;9.050;2023-06-01T18:40:37;1.98;;;1.60;;
13234;SDS011;6683;48.506;9.050;2023-06-01T18:43:40;2.63;;;1.60;;
13234;SDS011;6683;48.506;9.050;2023-06-01T18:46:42;2.00;;;1.25;;
13234;SDS011;6683;48.506;9.050;2023-06-01T18:49:45;2.35;;;1.58;;
13234;SDS011;6683;48.506;9.050;2023-06-01T18:52:50;2.17;;;1.27;;